sensor_id;sensor_type;location;lat;lon;timestamp;temperature;humidity
10388;DHT22;5240;51.128;4.566;2023-08-06T00:00:05;15.10;99.90
10388;DHT22;5240;51.128;4.566;2023-08-06T00:02:32;15.10;99.90
10388;DHT22;5240;51.128;4.566;2023-08-06T00:05:01;15.10;99.90
10388;DHT22;5240;51.128;4.566;2023-08-06T00:07:28;15.00;99.90
10388;DHT22;5240;51.128;4.566;2023-08-06T00:09:55;15.00;99.90
10388;DHT22;5240;51.128;4.566;2023-08-06T00:12:23;15.10;99.90
10388;DHT22;5240;51.128;4.566;2023-08-06T00:14:50;15.10;99.90
10388;DHT22;5240;51.128;4.566;2023-08-06T00:17:17;15.10;99.90
10388;DHT22;5240;51.128;4.566;2023-08-06T00:19:44;15.20;99.90
10388;DHT22;5240;51.128;4.566;2023-08-06T00:22:13;15.10;99.90
10388;DHT22;5240;51.128;4.566;2023-08-06T00:24:40;15.10;99.90
10388;DHT22;5240;51.128;4.566;2023-08-06T00:27:07;15.20;99.90
10388;DHT22;5240;51.128;4.566;2023-08-06T00:29:35;15.20;99.90
10388;DHT22;5240;51.128;4.566;2023-08-06T00:32:02;15.20;99.90
10388;DHT22;5240;51.128;4.566;2023-08-06T00:34:29;15.20;99.90
10388;DHT22;5240;51.128;4.566;2023-08-06T00:36:56;15.20;99.90
10388;DHT22;5240;51.128;4.566;2023-08-06T00:39:25;15.20;99.90
10388;DHT22;5240;51.128;4.566;2023-08-06T00:41:52;15.20;99.90
10388;DHT22;5240;51.128;4.566;2023-08-06T00:44:20;15.20;99.90
10388;DHT22;5240;51.128;4.566;2023-08-06T00:46:47;15.20;99.90
10388;DHT22;5240;51.128;4.566;2023-08-06T00:49:14;15.20;99.90
10388;DHT22;5240;51.128;4.566;2023-08-06T00:51:42;15.20;99.90
10388;DHT22;5240;51.128;4.566;2023-08-06T00:54:09;15.20;99.90
10388;DHT22;5240;51.128;4.566;2023-08-06T00:56:38;15.30;99.90
10388;DHT22;5240;51.128;4.566;2023-08-06T00:59:06;15.40;99.90
10388;DHT22;5240;51.128;4.566;2023-08-06T01:01:33;15.40;99.90
10388;DHT22;5240;51.128;4.566;2023-08-06T01:04:01;15.40;99.90
10388;DHT22;5240;51.128;4.566;2023-08-06T01:06:35;15.40;99.90
10388;DHT22;5240;51.128;4.566;2023-08-06T01:09:11;15.40;99.90
10388;DHT22;5240;51.128;4.566;2023-08-06T01:11:49;15.40;99.90
10388;DHT22;5240;51.128;4.566;2023-08-06T01:14:26;15.40;99.90
10388;DHT22;5240;51.128;4.566;2023-08-06T01:16:55;15.40;99.90
10388;DHT22;5240;51.128;4.566;2023-08-06T01:19:24;15.50;99.90
10388;DHT22;5240;51.128;4.566;2023-08-06T01:21:53;15.40;99.90
10388;DHT22;5240;51.128;4.566;2023-08-06T01:24:20;15.40;99.90
10388;DHT22;5240;51.128;4.566;2023-08-06T01:26:53;15.40;99.90
10388;DHT22;5240;51.128;4.566;2023-08-06T01:29:25;15.40;99.90
10388;DHT22;5240;51.128;4.566;2023-08-06T01:31:55;15.50;99.90
10388;DHT22;5240;51.128;4.566;2023-08-06T01:34:25;15.40;99.90
10388;DHT22;5240;51.128;4.566;2023-08-06T01:36:56;15.40;99.90
10388;DHT22;5240;51.128;4.566;2023-08-06T01:39:24;15.50;99.90
10388;DHT22;5240;51.128;4.566;2023-08-06T01:41:51;15.50;99.90
10388;DHT22;5240;51.128;4.566;2023-08-06T01:44:18;15.50;99.90
10388;DHT22;5240;51.128;4.566;2023-08-06T01:46:45;15.50;99.90
10388;DHT22;5240;51.128;4.566;2023-08-06T01:49:12;15.50;99.90
10388;DHT22;5240;51.128;4.566;2023-08-06T01:51:39;15.50;99.90
10388;DHT22;5240;51.128;4.566;2023-08-06T01:54:08;15.60;99.90
10388;DHT22;5240;51.128;4.566;2023-08-06T01:56:35;15.60;99.90
10388;DHT22;5240;51.128;4.566;2023-08-06T01:59:02;15.60;99.90
10388;DHT22;5240;51.128;4.566;2023-08-06T02:01:29;15.50;99.90
10388;DHT22;5240;51.128;4.566;2023-08-06T02:03:56;15.50;99.90
10388;DHT22;5240;51.128;4.566;2023-08-06T02:06:23;15.60;99.90
10388;DHT22;5240;51.128;4.566;2023-08-06T02:08:50;15.50;99.90
10388;DHT22;5240;51.128;4.566;2023-08-06T02:11:19;15.60;99.90
10388;DHT22;5240;51.128;4.566;2023-08-06T02:13:46;15.70;99.90
10388;DHT22;5240;51.128;4.566;2023-08-06T02:16:13;15.60;99.90
10388;DHT22;5240;51.128;4.566;2023-08-06T02:18:40;15.70;99.90
10388;DHT22;5240;51.128;4.566;2023-08-06T02:21:07;15.60;99.90
10388;DHT22;5240;51.128;4.566;2023-08-06T02:23:34;15.70;99.90
10388;DHT22;5240;51.128;4.566;2023-08-06T02:26:02;15.70;99.90
10388;DHT22;5240;51.128;4.566;2023-08-06T02:28:32;15.70;99.90
10388;DHT22;5240;51.128;4.566;2023-08-06T02:30:59;15.70;99.90
10388;DHT22;5240;51.128;4.566;2023-08-06T02:33:26;15.70;99.90
10388;DHT22;5240;51.128;4.566;2023-08-06T02:35:59;15.80;99.90
10388;DHT22;5240;51.128;4.566;2023-08-06T02:38:26;15.80;99.90
10388;DHT22;5240;51.128;4.566;2023-08-06T02:40:53;15.80;99.90
10388;DHT22;5240;51.128;4.566;2023-08-06T02:43:20;15.70;99.90
10388;DHT22;5240;51.128;4.566;2023-08-06T02:45:49;15.70;99.90
10388;DHT22;5240;51.128;4.566;2023-08-06T02:48:16;15.80;99.90
10388;DHT22;5240;51.128;4.566;2023-08-06T02:50:44;15.70;99.90
10388;DHT22;5240;51.128;4.566;2023-08-06T02:53:11;15.60;99.90
10388;DHT22;5240;51.128;4.566;2023-08-06T02:55:38;15.60;99.90
10388;DHT22;5240;51.128;4.566;2023-08-06T02:58:12;15.60;99.90
10388;DHT22;5240;51.128;4.566;2023-08-06T03:00:39;15.70;99.90
10388;DHT22;5240;51.128;4.566;2023-08-06T03:03:07;15.70;99.90
10388;DHT22;5240;51.128;4.566;2023-08-06T03:05:34;15.60;99.90
10388;DHT22;5240;51.128;4.566;2023-08-06T03:08:02;15.60;99.90
10388;DHT22;5240;51.128;4.566;2023-08-06T03:10:29;15.60;99.90
10388;DHT22;5240;51.128;4.566;2023-08-06T03:12:56;15.60;99.90
10388;DHT22;5240;51.128;4.566;2023-08-06T03:15:23;15.60;99.90
10388;DHT22;5240;51.128;4.566;2023-08-06T03:17:50;15.60;99.90
10388;DHT22;5240;51.128;4.566;2023-08-06T03:20:19;15.60;99.90
10388;DHT22;5240;51.128;4.566;2023-08-06T03:22:46;15.50;99.90
10388;DHT22;5240;51.128;4.566;2023-08-06T03:25:13;15.50;99.90
10388;DHT22;5240;51.128;4.566;2023-08-06T03:27:40;15.50;99.90
10388;DHT22;5240;51.128;4.566;2023-08-06T03:30:08;15.50;99.90
10388;DHT22;5240;51.128;4.566;2023-08-06T03:32:35;15.40;99.90
10388;DHT22;5240;51.128;4.566;2023-08-06T03:35:02;15.40;99.90
10388;DHT22;5240;51.128;4.566;2023-08-06T03:37:31;15.40;99.90
10388;DHT22;5240;51.128;4.566;2023-08-06T03:39:58;15.50;99.90
10388;DHT22;5240;51.128;4.566;2023-08-06T03:42:25;15.40;99.90
10388;DHT22;5240;51.128;4.566;2023-08-06T03:44:52;15.40;99.90
10388;DHT22;5240;51.128;4.566;2023-08-06T03:47:19;15.40;99.90
10388;DHT22;5240;51.128;4.566;2023-08-06T03:49:46;15.40;99.90
10388;DHT22;5240;51.128;4.566;2023-08-06T03:52:15;15.50;99.90
10388;DHT22;5240;51.128;4.566;2023-08-06T03:54:43;15.50;99.90
10388;DHT22;5240;51.128;4.566;2023-08-06T03:57:11;15.50;99.90
10388;DHT22;5240;51.128;4.566;2023-08-06T03:59:38;15.40;99.90
10388;DHT22;5240;51.128;4.566;2023-08-06T04:02:06;15.40;99.90
10388;DHT22;5240;51.128;4.566;2023-08-06T04:04:33;15.40;99.90
10388;DHT22;5240;51.128;4.566;2023-08-06T04:07:00;15.30;99.90
10388;DHT22;5240;51.128;4.566;2023-08-06T04:09:28;15.30;99.90
10388;DHT22;5240;51.128;4.566;2023-08-06T04:11:57;15.20;99.90
10388;DHT22;5240;51.128;4.566;2023-08-06T04:14:26;15.20;99.90
10388;DHT22;5240;51.128;4.566;2023-08-06T04:16:53;15.20;99.90
10388;DHT22;5240;51.128;4.566;2023-08-06T04:19:20;15.20;99.90
10388;DHT22;5240;51.128;4.566;2023-08-06T04:21:47;15.10;99.90
10388;DHT22;5240;51.128;4.566;2023-08-06T04:24:14;15.20;99.90
10388;DHT22;5240;51.128;4.566;2023-08-06T04:26:41;15.10;99.90
10388;DHT22;5240;51.128;4.566;2023-08-06T04:29:10;15.10;99.90
10388;DHT22;5240;51.128;4.566;2023-08-06T04:31:37;15.00;99.90
10388;DHT22;5240;51.128;4.566;2023-08-06T04:34:05;15.00;99.90
10388;DHT22;5240;51.128;4.566;2023-08-06T04:36:33;15.00;99.90
10388;DHT22;5240;51.128;4.566;2023-08-06T04:39:00;15.00;99.90
10388;DHT22;5240;51.128;4.566;2023-08-06T04:41:27;15.00;99.90
10388;DHT22;5240;51.128;4.566;2023-08-06T04:43:54;15.00;99.90
10388;DHT22;5240;51.128;4.566;2023-08-06T04:46:24;14.90;99.90
10388;DHT22;5240;51.128;4.566;2023-08-06T04:48:51;14.90;99.90
10388;DHT22;5240;51.128;4.566;2023-08-06T04:51:18;14.90;99.90
10388;DHT22;5240;51.128;4.566;2023-08-06T04:53:48;14.80;99.90
10388;DHT22;5240;51.128;4.566;2023-08-06T04:56:15;14.70;99.90
10388;DHT22;5240;51.128;4.566;2023-08-06T04:58:42;14.60;99.90
10388;DHT22;5240;51.128;4.566;2023-08-06T05:01:09;14.50;99.90
10388;DHT22;5240;51.128;4.566;2023-08-06T05:03:38;14.40;99.90
10388;DHT22;5240;51.128;4.566;2023-08-06T05:06:05;14.30;99.90
10388;DHT22;5240;51.128;4.566;2023-08-06T05:08:32;14.30;99.90
10388;DHT22;5240;51.128;4.566;2023-08-06T05:10:59;14.30;99.90
10388;DHT22;5240;51.128;4.566;2023-08-06T05:13:26;14.30;99.90
10388;DHT22;5240;51.128;4.566;2023-08-06T05:15:53;14.30;99.90
10388;DHT22;5240;51.128;4.566;2023-08-06T05:18:20;14.30;99.90
10388;DHT22;5240;51.128;4.566;2023-08-06T05:20:49;14.40;99.90
10388;DHT22;5240;51.128;4.566;2023-08-06T05:23:16;14.50;99.90
10388;DHT22;5240;51.128;4.566;2023-08-06T05:25:43;14.50;99.90
10388;DHT22;5240;51.128;4.566;2023-08-06T05:28:10;14.50;99.90
10388;DHT22;5240;51.128;4.566;2023-08-06T05:30:39;14.50;99.90
10388;DHT22;5240;51.128;4.566;2023-08-06T05:33:06;14.50;99.90
10388;DHT22;5240;51.128;4.566;2023-08-06T05:35:33;14.50;99.90
10388;DHT22;5240;51.128;4.566;2023-08-06T05:38:02;14.50;99.90
10388;DHT22;5240;51.128;4.566;2023-08-06T05:40:29;14.40;99.90
10388;DHT22;5240;51.128;4.566;2023-08-06T05:42:56;14.40;99.90
10388;DHT22;5240;51.128;4.566;2023-08-06T05:45:23;14.40;99.90
10388;DHT22;5240;51.128;4.566;2023-08-06T05:47:50;14.50;99.90
10388;DHT22;5240;51.128;4.566;2023-08-06T05:50:17;14.40;99.90
10388;DHT22;5240;51.128;4.566;2023-08-06T05:52:44;14.40;99.90
10388;DHT22;5240;51.128;4.566;2023-08-06T05:55:13;14.40;99.90
10388;DHT22;5240;51.128;4.566;2023-08-06T05:57:40;14.40;99.90
10388;DHT22;5240;51.128;4.566;2023-08-06T06:00:08;14.40;99.90
10388;DHT22;5240;51.128;4.566;2023-08-06T06:02:35;14.50;99.90
10388;DHT22;5240;51.128;4.566;2023-08-06T06:05:02;14.40;99.90
10388;DHT22;5240;51.128;4.566;2023-08-06T06:07:29;14.50;99.90
10388;DHT22;5240;51.128;4.566;2023-08-06T06:09:57;14.50;99.90
10388;DHT22;5240;51.128;4.566;2023-08-06T06:12:25;14.50;99.90
10388;DHT22;5240;51.128;4.566;2023-08-06T06:14:52;14.50;99.90
10388;DHT22;5240;51.128;4.566;2023-08-06T06:17:19;14.50;99.90
10388;DHT22;5240;51.128;4.566;2023-08-06T06:19:46;14.60;99.90
10388;DHT22;5240;51.128;4.566;2023-08-06T06:22:14;14.60;99.90
10388;DHT22;5240;51.128;4.566;2023-08-06T06:24:41;14.60;99.90
10388;DHT22;5240;51.128;4.566;2023-08-06T06:27:08;14.60;99.90
10388;DHT22;5240;51.128;4.566;2023-08-06T06:29:36;14.60;99.90
10388;DHT22;5240;51.128;4.566;2023-08-06T06:32:04;14.60;99.90
10388;DHT22;5240;51.128;4.566;2023-08-06T06:34:31;14.60;99.90
10388;DHT22;5240;51.128;4.566;2023-08-06T06:36:58;14.70;99.90
10388;DHT22;5240;51.128;4.566;2023-08-06T06:39:25;14.60;99.90
10388;DHT22;5240;51.128;4.566;2023-08-06T06:41:52;14.70;99.90
10388;DHT22;5240;51.128;4.566;2023-08-06T06:44:19;14.70;99.90
10388;DHT22;5240;51.128;4.566;2023-08-06T06:46:48;14.70;99.90
10388;DHT22;5240;51.128;4.566;2023-08-06T06:49:15;14.70;99.90
10388;DHT22;5240;51.128;4.566;2023-08-06T06:51:42;14.70;99.90
10388;DHT22;5240;51.128;4.566;2023-08-06T06:54:09;14.70;99.90
10388;DHT22;5240;51.128;4.566;2023-08-06T06:56:37;14.80;99.90
10388;DHT22;5240;51.128;4.566;2023-08-06T06:59:04;14.80;99.90
10388;DHT22;5240;51.128;4.566;2023-08-06T07:01:31;14.80;99.90
10388;DHT22;5240;51.128;4.566;2023-08-06T07:03:59;14.70;99.90
10388;DHT22;5240;51.128;4.566;2023-08-06T07:06:30;14.70;99.90
10388;DHT22;5240;51.128;4.566;2023-08-06T07:08:57;14.70;99.90
10388;DHT22;5240;51.128;4.566;2023-08-06T07:11:24;14.60;99.90
10388;DHT22;5240;51.128;4.566;2023-08-06T07:13:56;14.60;99.90
10388;DHT22;5240;51.128;4.566;2023-08-06T07:16:23;14.70;99.90
10388;DHT22;5240;51.128;4.566;2023-08-06T07:18:51;14.70;99.90
10388;DHT22;5240;51.128;4.566;2023-08-06T07:21:19;14.70;99.90
10388;DHT22;5240;51.128;4.566;2023-08-06T07:23:47;14.80;99.90
10388;DHT22;5240;51.128;4.566;2023-08-06T07:26:15;14.80;99.90
10388;DHT22;5240;51.128;4.566;2023-08-06T07:28:42;14.80;99.90
10388;DHT22;5240;51.128;4.566;2023-08-06T07:31:10;14.80;99.90
10388;DHT22;5240;51.128;4.566;2023-08-06T07:33:37;14.80;99.90
10388;DHT22;5240;51.128;4.566;2023-08-06T07:36:10;14.90;99.90
10388;DHT22;5240;51.128;4.566;2023-08-06T07:38:39;14.90;99.90
10388;DHT22;5240;51.128;4.566;2023-08-06T07:41:07;14.90;99.90
10388;DHT22;5240;51.128;4.566;2023-08-06T07:43:34;14.90;99.90
10388;DHT22;5240;51.128;4.566;2023-08-06T07:46:02;14.90;99.90
10388;DHT22;5240;51.128;4.566;2023-08-06T07:48:29;15.00;99.90
10388;DHT22;5240;51.128;4.566;2023-08-06T07:50:56;14.90;99.90
10388;DHT22;5240;51.128;4.566;2023-08-06T07:53:24;14.90;99.90
10388;DHT22;5240;51.128;4.566;2023-08-06T07:55:54;14.90;99.90
10388;DHT22;5240;51.128;4.566;2023-08-06T07:58:23;15.00;99.90
10388;DHT22;5240;51.128;4.566;2023-08-06T08:00:50;15.00;99.90
10388;DHT22;5240;51.128;4.566;2023-08-06T08:03:17;15.00;99.90
10388;DHT22;5240;51.128;4.566;2023-08-06T08:05:45;15.00;99.90
10388;DHT22;5240;51.128;4.566;2023-08-06T08:08:12;15.10;99.90
10388;DHT22;5240;51.128;4.566;2023-08-06T08:10:39;15.20;99.90
10388;DHT22;5240;51.128;4.566;2023-08-06T08:13:07;15.20;99.90
10388;DHT22;5240;51.128;4.566;2023-08-06T08:15:35;15.30;99.90
10388;DHT22;5240;51.128;4.566;2023-08-06T08:18:02;15.30;99.90
10388;DHT22;5240;51.128;4.566;2023-08-06T08:20:29;15.40;99.90
10388;DHT22;5240;51.128;4.566;2023-08-06T08:22:59;15.50;99.90
10388;DHT22;5240;51.128;4.566;2023-08-06T08:25:27;15.60;99.90
10388;DHT22;5240;51.128;4.566;2023-08-06T08:27:55;15.60;99.90
10388;DHT22;5240;51.128;4.566;2023-08-06T08:30:23;15.60;99.90
10388;DHT22;5240;51.128;4.566;2023-08-06T08:32:50;15.60;99.90
10388;DHT22;5240;51.128;4.566;2023-08-06T08:35:17;15.50;99.90
10388;DHT22;5240;51.128;4.566;2023-08-06T08:37:45;15.40;99.90
10388;DHT22;5240;51.128;4.566;2023-08-06T08:40:14;15.40;99.90
10388;DHT22;5240;51.128;4.566;2023-08-06T08:42:42;15.40;99.90
10388;DHT22;5240;51.128;4.566;2023-08-06T08:45:12;15.30;99.90
10388;DHT22;5240;51.128;4.566;2023-08-06T08:47:42;15.40;99.90
10388;DHT22;5240;51.128;4.566;2023-08-06T08:50:10;15.50;99.90
10388;DHT22;5240;51.128;4.566;2023-08-06T08:52:39;15.60;99.90
10388;DHT22;5240;51.128;4.566;2023-08-06T08:55:08;15.60;99.90
10388;DHT22;5240;51.128;4.566;2023-08-06T08:57:35;15.60;99.90
10388;DHT22;5240;51.128;4.566;2023-08-06T09:00:03;15.60;99.90
10388;DHT22;5240;51.128;4.566;2023-08-06T09:02:32;15.70;99.90
10388;DHT22;5240;51.128;4.566;2023-08-06T09:05:01;15.90;99.90
10388;DHT22;5240;51.128;4.566;2023-08-06T09:07:34;15.90;99.90
10388;DHT22;5240;51.128;4.566;2023-08-06T09:10:03;15.90;99.90
10388;DHT22;5240;51.128;4.566;2023-08-06T09:12:31;15.90;99.90
10388;DHT22;5240;51.128;4.566;2023-08-06T09:14:58;15.80;99.90
10388;DHT22;5240;51.128;4.566;2023-08-06T09:17:28;15.80;99.90
10388;DHT22;5240;51.128;4.566;2023-08-06T09:19:55;15.80;99.90
10388;DHT22;5240;51.128;4.566;2023-08-06T09:22:23;15.80;99.90
10388;DHT22;5240;51.128;4.566;2023-08-06T09:24:51;15.90;99.90
10388;DHT22;5240;51.128;4.566;2023-08-06T09:27:18;15.80;99.90
10388;DHT22;5240;51.128;4.566;2023-08-06T09:29:46;15.60;99.90
10388;DHT22;5240;51.128;4.566;2023-08-06T09:32:13;15.50;99.90
10388;DHT22;5240;51.128;4.566;2023-08-06T09:34:42;15.40;99.90
10388;DHT22;5240;51.128;4.566;2023-08-06T09:37:10;15.30;99.90
10388;DHT22;5240;51.128;4.566;2023-08-06T09:39:40;15.20;99.90
10388;DHT22;5240;51.128;4.566;2023-08-06T09:42:07;15.20;99.90
10388;DHT22;5240;51.128;4.566;2023-08-06T09:44:34;15.20;99.90
10388;DHT22;5240;51.128;4.566;2023-08-06T09:47:02;15.20;99.90
10388;DHT22;5240;51.128;4.566;2023-08-06T09:49:41;15.10;99.90
10388;DHT22;5240;51.128;4.566;2023-08-06T09:52:11;15.10;99.90
10388;DHT22;5240;51.128;4.566;2023-08-06T09:54:40;15.10;99.90
10388;DHT22;5240;51.128;4.566;2023-08-06T09:57:08;15.10;99.90
10388;DHT22;5240;51.128;4.566;2023-08-06T09:59:35;15.10;99.90
10388;DHT22;5240;51.128;4.566;2023-08-06T10:02:10;15.20;99.90
10388;DHT22;5240;51.128;4.566;2023-08-06T10:04:39;15.20;99.90
10388;DHT22;5240;51.128;4.566;2023-08-06T10:07:06;15.20;99.90
10388;DHT22;5240;51.128;4.566;2023-08-06T10:09:33;15.10;99.90
10388;DHT22;5240;51.128;4.566;2023-08-06T10:12:02;14.90;99.90
10388;DHT22;5240;51.128;4.566;2023-08-06T10:14:33;14.80;99.90
10388;DHT22;5240;51.128;4.566;2023-08-06T10:17:02;14.70;99.90
10388;DHT22;5240;51.128;4.566;2023-08-06T10:19:31;14.60;99.90
10388;DHT22;5240;51.128;4.566;2023-08-06T10:22:12;14.60;99.90
10388;DHT22;5240;51.128;4.566;2023-08-06T10:24:50;14.70;99.90
10388;DHT22;5240;51.128;4.566;2023-08-06T10:27:34;14.80;99.90
10388;DHT22;5240;51.128;4.566;2023-08-06T10:30:21;14.70;99.90
10388;DHT22;5240;51.128;4.566;2023-08-06T10:32:48;14.80;99.90
10388;DHT22;5240;51.128;4.566;2023-08-06T10:35:34;14.90;99.90
10388;DHT22;5240;51.128;4.566;2023-08-06T10:38:05;15.10;99.90
10388;DHT22;5240;51.128;4.566;2023-08-06T10:40:34;15.20;99.90
10388;DHT22;5240;51.128;4.566;2023-08-06T10:43:03;15.20;99.90
10388;DHT22;5240;51.128;4.566;2023-08-06T10:45:34;15.30;99.90
10388;DHT22;5240;51.128;4.566;2023-08-06T10:48:02;15.30;99.90
10388;DHT22;5240;51.128;4.566;2023-08-06T10:50:30;15.40;99.90
10388;DHT22;5240;51.128;4.566;2023-08-06T10:53:03;15.40;99.90
10388;DHT22;5240;51.128;4.566;2023-08-06T10:55:31;15.40;99.90
10388;DHT22;5240;51.128;4.566;2023-08-06T10:57:59;15.40;99.90
10388;DHT22;5240;51.128;4.566;2023-08-06T11:00:27;15.30;99.90
10388;DHT22;5240;51.128;4.566;2023-08-06T11:02:54;15.30;99.90
10388;DHT22;5240;51.128;4.566;2023-08-06T11:05:21;15.20;99.90
10388;DHT22;5240;51.128;4.566;2023-08-06T11:07:49;15.30;99.90
10388;DHT22;5240;51.128;4.566;2023-08-06T11:10:17;15.40;99.90
10388;DHT22;5240;51.128;4.566;2023-08-06T11:12:45;15.40;99.90
10388;DHT22;5240;51.128;4.566;2023-08-06T11:15:12;15.50;99.90
10388;DHT22;5240;51.128;4.566;2023-08-06T11:17:42;15.50;99.90
10388;DHT22;5240;51.128;4.566;2023-08-06T11:20:09;15.50;99.90
10388;DHT22;5240;51.128;4.566;2023-08-06T11:22:37;15.60;99.90
10388;DHT22;5240;51.128;4.566;2023-08-06T11:25:06;15.80;99.90
10388;DHT22;5240;51.128;4.566;2023-08-06T11:27:33;15.90;99.90
10388;DHT22;5240;51.128;4.566;2023-08-06T11:30:00;16.00;99.90
10388;DHT22;5240;51.128;4.566;2023-08-06T11:32:27;16.10;99.90
10388;DHT22;5240;51.128;4.566;2023-08-06T11:34:56;16.10;99.90
10388;DHT22;5240;51.128;4.566;2023-08-06T11:37:23;16.10;99.90
10388;DHT22;5240;51.128;4.566;2023-08-06T11:39:52;16.10;99.90
10388;DHT22;5240;51.128;4.566;2023-08-06T11:42:19;16.20;99.90
10388;DHT22;5240;51.128;4.566;2023-08-06T11:44:46;16.20;99.90
10388;DHT22;5240;51.128;4.566;2023-08-06T11:47:15;16.10;99.90
10388;DHT22;5240;51.128;4.566;2023-08-06T11:49:44;16.10;99.90
10388;DHT22;5240;51.128;4.566;2023-08-06T11:52:17;16.00;99.90
10388;DHT22;5240;51.128;4.566;2023-08-06T11:54:45;15.80;99.90
10388;DHT22;5240;51.128;4.566;2023-08-06T11:57:13;15.60;99.90
10388;DHT22;5240;51.128;4.566;2023-08-06T11:59:40;15.60;99.90
10388;DHT22;5240;51.128;4.566;2023-08-06T12:02:10;15.60;99.90
10388;DHT22;5240;51.128;4.566;2023-08-06T12:04:59;15.60;99.90
10388;DHT22;5240;51.128;4.566;2023-08-06T12:07:29;15.50;99.90
10388;DHT22;5240;51.128;4.566;2023-08-06T12:09:56;15.30;99.90
10388;DHT22;5240;51.128;4.566;2023-08-06T12:12:24;15.30;99.90
10388;DHT22;5240;51.128;4.566;2023-08-06T12:14:51;15.20;99.90
10388;DHT22;5240;51.128;4.566;2023-08-06T12:17:18;15.20;99.90
10388;DHT22;5240;51.128;4.566;2023-08-06T12:19:45;15.20;99.90
10388;DHT22;5240;51.128;4.566;2023-08-06T12:22:13;15.30;99.90
10388;DHT22;5240;51.128;4.566;2023-08-06T12:24:42;15.30;99.90
10388;DHT22;5240;51.128;4.566;2023-08-06T12:27:09;15.20;99.90
10388;DHT22;5240;51.128;4.566;2023-08-06T12:29:37;15.20;99.90
10388;DHT22;5240;51.128;4.566;2023-08-06T12:32:05;15.10;99.90
10388;DHT22;5240;51.128;4.566;2023-08-06T12:34:32;15.10;99.90
10388;DHT22;5240;51.128;4.566;2023-08-06T12:36:59;15.20;99.90
10388;DHT22;5240;51.128;4.566;2023-08-06T12:39:26;15.20;99.90
10388;DHT22;5240;51.128;4.566;2023-08-06T12:41:55;15.30;99.90
10388;DHT22;5240;51.128;4.566;2023-08-06T12:44:23;15.30;99.90
10388;DHT22;5240;51.128;4.566;2023-08-06T12:46:51;15.30;99.90
10388;DHT22;5240;51.128;4.566;2023-08-06T12:49:18;15.40;99.90
10388;DHT22;5240;51.128;4.566;2023-08-06T12:51:46;15.30;99.90
10388;DHT22;5240;51.128;4.566;2023-08-06T12:54:13;15.30;99.90
10388;DHT22;5240;51.128;4.566;2023-08-06T12:56:40;15.40;99.90
10388;DHT22;5240;51.128;4.566;2023-08-06T12:59:09;15.50;99.90
10388;DHT22;5240;51.128;4.566;2023-08-06T13:01:37;15.40;99.90
10388;DHT22;5240;51.128;4.566;2023-08-06T13:04:04;15.30;99.90
10388;DHT22;5240;51.128;4.566;2023-08-06T13:06:31;15.10;99.90
10388;DHT22;5240;51.128;4.566;2023-08-06T13:09:01;15.00;99.90
10388;DHT22;5240;51.128;4.566;2023-08-06T13:11:29;14.80;99.90
10388;DHT22;5240;51.128;4.566;2023-08-06T13:13:59;14.80;99.90
10388;DHT22;5240;51.128;4.566;2023-08-06T13:16:27;14.70;99.90
10388;DHT22;5240;51.128;4.566;2023-08-06T13:18:54;14.60;99.90
10388;DHT22;5240;51.128;4.566;2023-08-06T13:21:21;14.60;99.90
10388;DHT22;5240;51.128;4.566;2023-08-06T13:23:48;14.50;99.90
10388;DHT22;5240;51.128;4.566;2023-08-06T13:26:16;14.50;99.90
10388;DHT22;5240;51.128;4.566;2023-08-06T13:28:43;14.60;99.90
10388;DHT22;5240;51.128;4.566;2023-08-06T13:31:10;14.60;99.90
10388;DHT22;5240;51.128;4.566;2023-08-06T13:33:38;14.50;99.90
10388;DHT22;5240;51.128;4.566;2023-08-06T13:36:06;14.50;99.90
10388;DHT22;5240;51.128;4.566;2023-08-06T13:38:33;14.50;99.90
10388;DHT22;5240;51.128;4.566;2023-08-06T13:41:01;14.50;99.90
10388;DHT22;5240;51.128;4.566;2023-08-06T13:43:29;14.40;99.90
10388;DHT22;5240;51.128;4.566;2023-08-06T13:45:56;14.30;99.90
10388;DHT22;5240;51.128;4.566;2023-08-06T13:48:23;14.20;99.90
10388;DHT22;5240;51.128;4.566;2023-08-06T13:50:52;14.30;99.90
10388;DHT22;5240;51.128;4.566;2023-08-06T13:53:19;14.30;99.90
10388;DHT22;5240;51.128;4.566;2023-08-06T13:55:47;14.20;99.90
10388;DHT22;5240;51.128;4.566;2023-08-06T13:58:14;14.20;99.90
10388;DHT22;5240;51.128;4.566;2023-08-06T14:00:41;14.20;99.90
10388;DHT22;5240;51.128;4.566;2023-08-06T14:03:08;14.20;99.90
10388;DHT22;5240;51.128;4.566;2023-08-06T14:05:36;14.20;99.90
10388;DHT22;5240;51.128;4.566;2023-08-06T14:08:04;14.20;99.90
10388;DHT22;5240;51.128;4.566;2023-08-06T14:10:32;14.20;99.90
10388;DHT22;5240;51.128;4.566;2023-08-06T14:12:59;14.30;99.90
10388;DHT22;5240;51.128;4.566;2023-08-06T14:15:26;14.30;99.90
10388;DHT22;5240;51.128;4.566;2023-08-06T14:17:53;14.30;99.90
10388;DHT22;5240;51.128;4.566;2023-08-06T14:20:20;14.40;99.90
10388;DHT22;5240;51.128;4.566;2023-08-06T14:22:48;14.30;99.90
10388;DHT22;5240;51.128;4.566;2023-08-06T14:25:17;14.30;99.90
10388;DHT22;5240;51.128;4.566;2023-08-06T14:27:44;14.20;99.90
10388;DHT22;5240;51.128;4.566;2023-08-06T14:30:11;14.20;99.90
10388;DHT22;5240;51.128;4.566;2023-08-06T14:32:38;14.30;99.90
10388;DHT22;5240;51.128;4.566;2023-08-06T14:35:06;14.30;99.90
10388;DHT22;5240;51.128;4.566;2023-08-06T14:37:33;14.40;99.90
10388;DHT22;5240;51.128;4.566;2023-08-06T14:40:01;14.50;99.90
10388;DHT22;5240;51.128;4.566;2023-08-06T14:42:29;14.50;99.90
10388;DHT22;5240;51.128;4.566;2023-08-06T14:44:56;14.50;99.90
10388;DHT22;5240;51.128;4.566;2023-08-06T14:47:23;14.60;99.90
10388;DHT22;5240;51.128;4.566;2023-08-06T14:49:50;14.70;99.90
10388;DHT22;5240;51.128;4.566;2023-08-06T14:52:17;14.70;99.90
10388;DHT22;5240;51.128;4.566;2023-08-06T14:54:44;14.80;99.90
10388;DHT22;5240;51.128;4.566;2023-08-06T14:57:12;14.80;99.90
10388;DHT22;5240;51.128;4.566;2023-08-06T14:59:40;14.90;99.90
10388;DHT22;5240;51.128;4.566;2023-08-06T15:02:07;15.00;99.90
10388;DHT22;5240;51.128;4.566;2023-08-06T15:04:34;15.00;99.90
10388;DHT22;5240;51.128;4.566;2023-08-06T15:07:02;15.00;99.90
10388;DHT22;5240;51.128;4.566;2023-08-06T15:09:29;15.00;99.90
10388;DHT22;5240;51.128;4.566;2023-08-06T15:11:56;14.90;99.90
10388;DHT22;5240;51.128;4.566;2023-08-06T15:14:23;14.80;99.90
10388;DHT22;5240;51.128;4.566;2023-08-06T15:16:51;14.80;99.90
10388;DHT22;5240;51.128;4.566;2023-08-06T15:19:21;14.70;99.90
10388;DHT22;5240;51.128;4.566;2023-08-06T15:21:48;14.70;99.90
10388;DHT22;5240;51.128;4.566;2023-08-06T15:24:15;14.70;99.90
10388;DHT22;5240;51.128;4.566;2023-08-06T15:26:42;14.70;99.90
10388;DHT22;5240;51.128;4.566;2023-08-06T15:29:09;14.60;99.90
10388;DHT22;5240;51.128;4.566;2023-08-06T15:31:37;14.50;99.90
10388;DHT22;5240;51.128;4.566;2023-08-06T15:34:06;14.50;99.90
10388;DHT22;5240;51.128;4.566;2023-08-06T15:36:33;14.50;99.90
10388;DHT22;5240;51.128;4.566;2023-08-06T15:39:00;14.40;99.90
10388;DHT22;5240;51.128;4.566;2023-08-06T15:41:29;14.40;99.90
10388;DHT22;5240;51.128;4.566;2023-08-06T15:43:56;14.50;99.90
10388;DHT22;5240;51.128;4.566;2023-08-06T15:46:23;14.60;99.90
10388;DHT22;5240;51.128;4.566;2023-08-06T15:48:50;14.60;99.90